sensor_id;sensor_type;location;lat;lon;timestamp;pressure;altitude;pressure_sealevel;temperature;humidity
32733;BME280;11867;51.198;11.966;2023-03-31T00:00:05;99646.53;;;12.15;83.10
32733;BME280;11867;51.198;11.966;2023-03-31T00:01:12;99641.75;;;12.21;83.17
32733;BME280;11867;51.198;11.966;2023-03-31T00:02:13;99640.16;;;12.20;83.20
32733;BME280;11867;51.198;11.966;2023-03-31T00:03:16;99643.00;;;12.37;82.46
32733;BME280;11867;51.198;11.966;2023-03-31T00:04:22;99636.59;;;12.19;83.09
32733;BME280;11867;51.198;11.966;2023-03-31T00:05:26;99643.31;;;12.36;82.43
32733;BME280;11867;51.198;11.966;2023-03-31T00:06:28;99639.94;;;12.16;82.81
32733;BME280;11867;51.198;11.966;2023-03-31T00:07:31;99640.22;;;12.28;82.93
32733;BME280;11867;51.198;11.966;2023-03-31T00:08:33;99644.69;;;12.24;83.47
32733;BME280;11867;51.198;11.966;2023-03-31T00:09:36;99643.63;;;12.11;83.19
32733;BME280;11867;51.198;11.966;2023-03-31T00:10:43;99646.06;;;11.99;83.46
32733;BME280;11867;51.198;11.966;2023-03-31T00:11:46;99640.56;;;12.13;83.60
32733;BME280;11867;51.198;11.966;2023-03-31T00:12:49;99641.44;;;12.22;82.88
32733;BME280;11867;51.198;11.966;2023-03-31T00:13:51;99640.03;;;12.25;83.33
32733;BME280;11867;51.198;11.966;2023-03-31T00:14:54;99635.53;;;12.06;83.65
32733;BME280;11867;51.198;11.966;2023-03-31T00:15:57;99648.16;;;12.16;83.78
32733;BME280;11867;51.198;11.966;2023-03-31T00:17:00;99634.13;;;12.31;83.28
32733;BME280;11867;51.198;11.966;2023-03-31T00:18:05;99635.69;;;12.46;82.94
32733;BME280;11867;51.198;11.966;2023-03-31T00:19:09;99638.59;;;12.50;82.17
32733;BME280;11867;51.198;11.966;2023-03-31T00:20:18;99638.25;;;12.43;82.80
32733;BME280;11867;51.198;11.966;2023-03-31T00:21:22;99636.44;;;12.38;82.79
32733;BME280;11867;51.198;11.966;2023-03-31T00:22:30;99632.63;;;12.25;83.16
32733;BME280;11867;51.198;11.966;2023-03-31T00:23:32;99633.94;;;12.28;82.83
32733;BME280;11867;51.198;11.966;2023-03-31T00:24:34;99630.97;;;12.38;82.63
32733;BME280;11867;51.198;11.966;2023-03-31T00:25:38;99623.31;;;12.26;83.02
32733;BME280;11867;51.198;11.966;2023-03-31T00:26:41;99614.00;;;12.27;82.99
32733;BME280;11867;51.198;11.966;2023-03-31T00:27:44;99617.56;;;12.28;83.34
32733;BME280;11867;51.198;11.966;2023-03-31T00:28:46;99621.75;;;12.11;83.73
32733;BME280;11867;51.198;11.966;2023-03-31T00:29:48;99615.84;;;12.18;83.76
32733;BME280;11867;51.198;11.966;2023-03-31T00:30:52;99618.09;;;12.39;83.12
32733;BME280;11867;51.198;11.966;2023-03-31T00:31:54;99610.91;;;12.43;82.88
32733;BME280;11867;51.198;11.966;2023-03-31T00:32:56;99603.69;;;12.47;82.39
32733;BME280;11867;51.198;11.966;2023-03-31T00:33:59;99610.25;;;12.23;83.05
32733;BME280;11867;51.198;11.966;2023-03-31T00:35:00;99600.47;;;12.22;83.21
32733;BME280;11867;51.198;11.966;2023-03-31T00:36:04;99597.78;;;12.31;83.03
32733;BME280;11867;51.198;11.966;2023-03-31T00:37:07;99598.47;;;12.37;83.09
32733;BME280;11867;51.198;11.966;2023-03-31T00:38:10;99602.22;;;12.41;82.76
32733;BME280;11867;51.198;11.966;2023-03-31T00:39:16;99593.88;;;12.46;82.06
32733;BME280;11867;51.198;11.966;2023-03-31T00:40:19;99599.97;;;12.43;82.28
32733;BME280;11867;51.198;11.966;2023-03-31T00:41:21;99604.53;;;12.11;83.94
32733;BME280;11867;51.198;11.966;2023-03-31T00:42:25;99592.31;;;12.31;83.69
32733;BME280;11867;51.198;11.966;2023-03-31T00:43:29;99584.41;;;12.29;83.19
32733;BME280;11867;51.198;11.966;2023-03-31T00:44:32;99592.06;;;12.41;82.71
32733;BME280;11867;51.198;11.966;2023-03-31T00:45:35;99587.91;;;12.44;82.61
32733;BME280;11867;51.198;11.966;2023-03-31T00:46:42;99585.00;;;12.40;82.97
32733;BME280;11867;51.198;11.966;2023-03-31T00:47:47;99597.09;;;12.25;83.04
32733;BME280;11867;51.198;11.966;2023-03-31T00:48:52;99591.97;;;12.24;83.25
32733;BME280;11867;51.198;11.966;2023-03-31T00:49:57;99583.69;;;12.38;82.66
32733;BME280;11867;51.198;11.966;2023-03-31T00:51:03;99581.94;;;12.42;82.53
32733;BME280;11867;51.198;11.966;2023-03-31T00:52:09;99580.84;;;12.43;82.82
32733;BME280;11867;51.198;11.966;2023-03-31T00:53:16;99577.94;;;12.03;83.70
32733;BME280;11867;51.198;11.966;2023-03-31T00:54:20;99574.22;;;11.99;84.40
32733;BME280;11867;51.198;11.966;2023-03-31T00:55:30;99563.53;;;11.88;84.83
32733;BME280;11867;51.198;11.966;2023-03-31T00:56:36;99572.13;;;11.96;84.45
32733;BME280;11867;51.198;11.966;2023-03-31T00:57:41;99562.94;;;12.14;84.21
32733;BME280;11867;51.198;11.966;2023-03-31T00:58:44;99559.16;;;12.24;83.32
32733;BME280;11867;51.198;11.966;2023-03-31T00:59:50;99556.09;;;12.25;83.39
32733;BME280;11867;51.198;11.966;2023-03-31T01:00:56;99553.25;;;12.30;83.21
32733;BME280;11867;51.198;11.966;2023-03-31T01:02:02;99549.88;;;12.34;82.98
32733;BME280;11867;51.198;11.966;2023-03-31T01:03:06;99556.47;;;12.32;82.62
32733;BME280;11867;51.198;11.966;2023-03-31T01:04:11;99550.22;;;12.32;82.92
32733;BME280;11867;51.198;11.966;2023-03-31T01:05:14;99555.78;;;12.04;83.70
32733;BME280;11867;51.198;11.966;2023-03-31T01:06:17;99555.78;;;12.04;84.44
32733;BME280;11867;51.198;11.966;2023-03-31T01:07:23;99547.66;;;12.13;84.35
32733;BME280;11867;51.198;11.966;2023-03-31T01:08:28;99549.03;;;12.24;83.61
32733;BME280;11867;51.198;11.966;2023-03-31T01:09:30;99541.53;;;12.30;83.18
32733;BME280;11867;51.198;11.966;2023-03-31T01:10:38;99537.47;;;12.27;83.33
32733;BME280;11867;51.198;11.966;2023-03-31T01:11:43;99536.53;;;12.32;82.93
32733;BME280;11867;51.198;11.966;2023-03-31T01:12:49;99536.91;;;12.39;82.70
32733;BME280;11867;51.198;11.966;2023-03-31T01:13:54;99521.75;;;12.33;82.34
32733;BME280;11867;51.198;11.966;2023-03-31T01:14:57;99529.66;;;12.35;82.63
32733;BME280;11867;51.198;11.966;2023-03-31T01:16:00;99527.25;;;11.74;84.74
32733;BME280;11867;51.198;11.966;2023-03-31T01:17:05;99523.41;;;11.61;85.41
32733;BME280;11867;51.198;11.966;2023-03-31T01:18:11;99526.25;;;11.70;85.78
32733;BME280;11867;51.198;11.966;2023-03-31T01:19:24;99530.09;;;11.69;85.59
32733;BME280;11867;51.198;11.966;2023-03-31T01:20:34;99525.59;;;11.87;85.12
32733;BME280;11867;51.198;11.966;2023-03-31T01:23:27;99520.84;;;11.79;84.97
32733;BME280;11867;51.198;11.966;2023-03-31T01:24:57;99505.63;;;11.86;84.90
32733;BME280;11867;51.198;11.966;2023-03-31T01:26:52;99515.34;;;11.93;84.69
32733;BME280;11867;51.198;11.966;2023-03-31T01:28:06;99513.25;;;11.89;84.55
32733;BME280;11867;51.198;11.966;2023-03-31T01:29:23;99513.44;;;11.93;84.42
32733;BME280;11867;51.198;11.966;2023-03-31T01:32:20;99509.72;;;11.75;85.00
32733;BME280;11867;51.198;11.966;2023-03-31T01:33:45;99505.22;;;11.70;85.10
32733;BME280;11867;51.198;11.966;2023-03-31T01:35:11;99501.03;;;11.73;85.18
32733;BME280;11867;51.198;11.966;2023-03-31T01:36:41;99505.97;;;11.48;86.20
32733;BME280;11867;51.198;11.966;2023-03-31T01:38:16;99493.47;;;11.34;87.07
32733;BME280;11867;51.198;11.966;2023-03-31T01:41:30;99502.38;;;11.25;87.61
32733;BME280;11867;51.198;11.966;2023-03-31T01:42:37;99499.44;;;11.36;87.15
32733;BME280;11867;51.198;11.966;2023-03-31T01:43:45;99497.28;;;11.46;86.69
32733;BME280;11867;51.198;11.966;2023-03-31T01:44:56;99496.91;;;11.39;86.72
32733;BME280;11867;51.198;11.966;2023-03-31T01:46:09;99500.94;;;11.42;86.63
32733;BME280;11867;51.198;11.966;2023-03-31T01:47:18;99497.84;;;11.21;87.77
32733;BME280;11867;51.198;11.966;2023-03-31T01:48:33;99493.56;;;11.28;87.64
32733;BME280;11867;51.198;11.966;2023-03-31T01:49:42;99503.22;;;11.48;87.04
32733;BME280;11867;51.198;11.966;2023-03-31T01:50:54;99505.38;;;11.51;86.65
32733;BME280;11867;51.198;11.966;2023-03-31T01:51:59;99480.81;;;11.51;86.07
32733;BME280;11867;51.198;11.966;2023-03-31T01:53:08;99489.91;;;11.69;85.97
32733;BME280;11867;51.198;11.966;2023-03-31T01:54:18;99493.50;;;11.93;85.14
32733;BME280;11867;51.198;11.966;2023-03-31T01:55:24;99498.97;;;11.56;86.04
32733;BME280;11867;51.198;11.966;2023-03-31T01:56:32;99489.44;;;11.31;87.49
32733;BME280;11867;51.198;11.966;2023-03-31T01:57:38;99490.78;;;11.56;86.64
32733;BME280;11867;51.198;11.966;2023-03-31T01:58:47;99480.88;;;11.60;86.13
32733;BME280;11867;51.198;11.966;2023-03-31T01:59:56;99479.88;;;11.56;86.45
32733;BME280;11867;51.198;11.966;2023-03-31T02:01:03;99480.81;;;11.74;85.79
32733;BME280;11867;51.198;11.966;2023-03-31T02:02:12;99474.72;;;11.91;85.13
32733;BME280;11867;51.198;11.966;2023-03-31T02:03:20;99468.84;;;12.06;84.55
32733;BME280;11867;51.198;11.966;2023-03-31T02:04:28;99470.97;;;12.09;83.94
32733;BME280;11867;51.198;11.966;2023-03-31T02:05:34;99465.81;;;12.08;84.06
32733;BME280;11867;51.198;11.966;2023-03-31T02:06:40;99474.81;;;12.08;83.90
32733;BME280;11867;51.198;11.966;2023-03-31T02:07:46;99475.00;;;12.12;84.04
32733;BME280;11867;51.198;11.966;2023-03-31T02:08:53;99471.63;;;12.15;84.08
32733;BME280;11867;51.198;11.966;2023-03-31T02:10:00;99465.75;;;12.22;83.50
32733;BME280;11867;51.198;11.966;2023-03-31T02:11:03;99461.44;;;12.29;83.10
32733;BME280;11867;51.198;11.966;2023-03-31T02:12:09;99468.56;;;12.08;84.17
32733;BME280;11867;51.198;11.966;2023-03-31T02:13:14;99461.47;;;12.07;84.16
32733;BME280;11867;51.198;11.966;2023-03-31T02:14:20;99459.66;;;12.02;84.06
32733;BME280;11867;51.198;11.966;2023-03-31T02:15:26;99465.06;;;12.16;83.81
32733;BME280;11867;51.198;11.966;2023-03-31T02:16:32;99463.50;;;12.24;83.35
32733;BME280;11867;51.198;11.966;2023-03-31T02:17:36;99456.88;;;12.16;83.61
32733;BME280;11867;51.198;11.966;2023-03-31T02:18:41;99449.16;;;12.18;83.63
32733;BME280;11867;51.198;11.966;2023-03-31T02:19:46;99452.50;;;12.15;83.53
32733;BME280;11867;51.198;11.966;2023-03-31T02:20:50;99456.22;;;12.19;83.52
32733;BME280;11867;51.198;11.966;2023-03-31T02:21:53;99452.50;;;12.15;83.75
32733;BME280;11867;51.198;11.966;2023-03-31T02:22:56;99455.06;;;12.11;83.80
32733;BME280;11867;51.198;11.966;2023-03-31T02:23:59;99448.66;;;12.16;83.65
32733;BME280;11867;51.198;11.966;2023-03-31T02:25:05;99448.03;;;12.19;83.57
32733;BME280;11867;51.198;11.966;2023-03-31T02:26:11;99440.69;;;12.28;83.12
32733;BME280;11867;51.198;11.966;2023-03-31T02:27:20;99444.41;;;12.32;82.91
32733;BME280;11867;51.198;11.966;2023-03-31T02:28:25;99439.44;;;12.35;82.73
32733;BME280;11867;51.198;11.966;2023-03-31T02:29:29;99436.66;;;12.26;82.86
32733;BME280;11867;51.198;11.966;2023-03-31T02:30:38;99435.34;;;12.23;83.02
32733;BME280;11867;51.198;11.966;2023-03-31T02:31:45;99437.25;;;12.14;83.33
32733;BME280;11867;51.198;11.966;2023-03-31T02:32:49;99438.34;;;12.13;83.40
32733;BME280;11867;51.198;11.966;2023-03-31T02:33:50;99435.19;;;12.20;83.45
32733;BME280;11867;51.198;11.966;2023-03-31T02:34:53;99430.75;;;12.01;83.61
32733;BME280;11867;51.198;11.966;2023-03-31T02:35:56;99436.78;;;11.89;83.81
32733;BME280;11867;51.198;11.966;2023-03-31T02:36:59;99427.38;;;11.82;84.53
32733;BME280;11867;51.198;11.966;2023-03-31T02:38:01;99428.81;;;11.79;84.96
32733;BME280;11867;51.198;11.966;2023-03-31T02:39:08;99419.66;;;11.61;85.30
32733;BME280;11867;51.198;11.966;2023-03-31T02:40:16;99429.44;;;11.76;84.81
32733;BME280;11867;51.198;11.966;2023-03-31T02:41:19;99422.69;;;11.82;84.66
32733;BME280;11867;51.198;11.966;2023-03-31T02:42:23;99422.31;;;11.89;84.69
32733;BME280;11867;51.198;11.966;2023-03-31T02:43:26;99429.50;;;11.85;84.53
32733;BME280;11867;51.198;11.966;2023-03-31T02:44:28;99417.66;;;11.89;84.72
32733;BME280;11867;51.198;11.966;2023-03-31T02:45:39;99419.13;;;11.73;84.93
32733;BME280;11867;51.198;11.966;2023-03-31T02:46:42;99418.56;;;11.85;85.07
32733;BME280;11867;51.198;11.966;2023-03-31T02:47:45;99404.06;;;11.84;84.81
32733;BME280;11867;51.198;11.966;2023-03-31T02:48:49;99408.50;;;11.94;84.51
32733;BME280;11867;51.198;11.966;2023-03-31T02:51:34;99401.94;;;11.95;84.19
32733;BME280;11867;51.198;11.966;2023-03-31T02:52:49;99396.53;;;12.04;83.84
32733;BME280;11867;51.198;11.966;2023-03-31T02:54:08;99395.09;;;12.06;83.71
32733;BME280;11867;51.198;11.966;2023-03-31T02:55:35;99395.16;;;11.93;84.58
32733;BME280;11867;51.198;11.966;2023-03-31T02:56:55;99399.53;;;11.94;84.44
32733;BME280;11867;51.198;11.966;2023-03-31T02:58:16;99394.41;;;12.01;84.20
32733;BME280;11867;51.198;11.966;2023-03-31T02:59:32;99388.63;;;12.02;84.23
32733;BME280;11867;51.198;11.966;2023-03-31T03:00:50;99389.94;;;12.05;83.58
32733;BME280;11867;51.198;11.966;2023-03-31T03:02:06;99389.63;;;12.06;83.32
32733;BME280;11867;51.198;11.966;2023-03-31T03:03:20;99393.16;;;12.07;83.02
32733;BME280;11867;51.198;11.966;2023-03-31T03:04:40;99386.44;;;12.13;83.73
32733;BME280;11867;51.198;11.966;2023-03-31T03:05:53;99387.75;;;12.16;83.14
32733;BME280;11867;51.198;11.966;2023-03-31T03:07:04;99387.47;;;11.95;84.04
32733;BME280;11867;51.198;11.966;2023-03-31T03:08:18;99384.34;;;12.10;83.61
32733;BME280;11867;51.198;11.966;2023-03-31T03:09:34;99377.44;;;12.13;83.18
32733;BME280;11867;51.198;11.966;2023-03-31T03:10:45;99385.66;;;12.21;82.99
32733;BME280;11867;51.198;11.966;2023-03-31T03:12:00;99382.16;;;12.29;82.68
32733;BME280;11867;51.198;11.966;2023-03-31T03:13:15;99378.31;;;12.30;82.49
32733;BME280;11867;51.198;11.966;2023-03-31T03:14:29;99376.97;;;12.19;82.81
32733;BME280;11867;51.198;11.966;2023-03-31T03:15:36;99377.19;;;12.31;82.40
32733;BME280;11867;51.198;11.966;2023-03-31T03:16:45;99370.13;;;12.30;82.40
32733;BME280;11867;51.198;11.966;2023-03-31T03:17:49;99373.31;;;12.24;82.53
32733;BME280;11867;51.198;11.966;2023-03-31T03:18:56;99381.38;;;12.29;82.44
32733;BME280;11867;51.198;11.966;2023-03-31T03:19:59;99362.88;;;12.26;82.39
32733;BME280;11867;51.198;11.966;2023-03-31T03:21:02;99372.16;;;12.16;82.63
32733;BME280;11867;51.198;11.966;2023-03-31T03:22:04;99376.22;;;11.74;84.94
32733;BME280;11867;51.198;11.966;2023-03-31T03:23:09;99370.91;;;11.91;84.59
32733;BME280;11867;51.198;11.966;2023-03-31T03:24:11;99366.66;;;11.85;84.26
32733;BME280;11867;51.198;11.966;2023-03-31T03:25:14;99366.34;;;11.86;84.90
32733;BME280;11867;51.198;11.966;2023-03-31T03:26:17;99355.31;;;11.91;84.49
32733;BME280;11867;51.198;11.966;2023-03-31T03:27:24;99352.09;;;11.89;84.33
32733;BME280;11867;51.198;11.966;2023-03-31T03:28:27;99357.66;;;11.84;84.73
32733;BME280;11867;51.198;11.966;2023-03-31T03:29:29;99352.69;;;11.86;84.83
32733;BME280;11867;51.198;11.966;2023-03-31T03:30:31;99356.97;;;12.01;84.33
32733;BME280;11867;51.198;11.966;2023-03-31T03:31:33;99354.69;;;11.95;84.38
32733;BME280;11867;51.198;11.966;2023-03-31T03:32:36;99349.38;;;11.89;83.86
32733;BME280;11867;51.198;11.966;2023-03-31T03:33:39;99354.91;;;11.08;87.55
32733;BME280;11867;51.198;11.966;2023-03-31T03:34:40;99356.38;;;10.78;89.41
32733;BME280;11867;51.198;11.966;2023-03-31T03:35:43;99348.78;;;10.88;89.87
32733;BME280;11867;51.198;11.966;2023-03-31T03:36:45;99343.75;;;10.82;89.97
32733;BME280;11867;51.198;11.966;2023-03-31T03:37:48;99345.06;;;10.84;90.33
32733;BME280;11867;51.198;11.966;2023-03-31T03:38:49;99345.53;;;11.00;89.44
32733;BME280;11867;51.198;11.966;2023-03-31T03:39:52;99343.34;;;11.11;88.50
32733;BME280;11867;51.198;11.966;2023-03-31T03:40:54;99345.06;;;10.84;89.85
32733;BME280;11867;51.198;11.966;2023-03-31T03:41:56;99357.31;;;10.45;91.82
32733;BME280;11867;51.198;11.966;2023-03-31T03:42:58;99349.56;;;10.39;92.54
32733;BME280;11867;51.198;11.966;2023-03-31T03:44:02;99334.59;;;10.64;91.84
32733;BME280;11867;51.198;11.966;2023-03-31T03:45:04;99338.03;;;11.06;90.14
32733;BME280;11867;51.198;11.966;2023-03-31T03:46:07;99342.94;;;11.40;88.38
32733;BME280;11867;51.198;11.966;2023-03-31T03:47:09;99339.34;;;11.54;87.30
32733;BME280;11867;51.198;11.966;2023-03-31T03:48:11;99329.41;;;11.58;86.56
32733;BME280;11867;51.198;11.966;2023-03-31T03:49:13;99335.53;;;11.63;86.77
32733;BME280;11867;51.198;11.966;2023-03-31T03:50:16;99328.44;;;11.54;87.53
32733;BME280;11867;51.198;11.966;2023-03-31T03:51:17;99330.22;;;11.58;87.13
32733;BME280;11867;51.198;11.966;2023-03-31T03:52:20;99324.50;;;11.68;86.71
32733;BME280;11867;51.198;11.966;2023-03-31T03:53:21;99323.78;;;11.85;86.09
32733;BME280;11867;51.198;11.966;2023-03-31T03:54:24;99314.88;;;11.48;87.35
32733;BME280;11867;51.198;11.966;2023-03-31T03:55:25;99318.34;;;11.63;86.82
32733;BME280;11867;51.198;11.966;2023-03-31T03:56:29;99314.41;;;11.78;86.20
32733;BME280;11867;51.198;11.966;2023-03-31T03:57:31;99315.53;;;11.77;86.27
32733;BME280;11867;51.198;11.966;2023-03-31T03:58:34;99316.69;;;11.84;85.88
32733;BME280;11867;51.198;11.966;2023-03-31T03:59:37;99308.59;;;12.02;84.88
32733;BME280;11867;51.198;11.966;2023-03-31T04:00:39;99309.56;;;11.97;84.94
32733;BME280;11867;51.198;11.966;2023-03-31T04:01:41;99305.03;;;11.93;84.98
32733;BME280;11867;51.198;11.966;2023-03-31T04:02:43;99304.88;;;11.89;84.43
32733;BME280;11867;51.198;11.966;2023-03-31T04:03:45;99304.34;;;11.87;85.33
32733;BME280;11867;51.198;11.966;2023-03-31T04:04:47;99311.06;;;11.81;85.72
32733;BME280;11867;51.198;11.966;2023-03-31T04:05:49;99298.50;;;11.80;85.71
32733;BME280;11867;51.198;11.966;2023-03-31T04:06:51;99289.75;;;11.91;85.08
32733;BME280;11867;51.198;11.966;2023-03-31T04:07:53;99287.56;;;12.02;84.23
32733;BME280;11867;51.198;11.966;2023-03-31T04:08:55;99290.78;;;12.04;84.67
32733;BME280;11867;51.198;11.966;2023-03-31T04:09:57;99285.09;;;11.92;84.99
32733;BME280;11867;51.198;11.966;2023-03-31T04:10:59;99276.44;;;11.99;84.83
32733;BME280;11867;51.198;11.966;2023-03-31T04:12:02;99280.00;;;11.99;84.76
32733;BME280;11867;51.198;11.966;2023-03-31T04:13:04;99279.84;;;12.04;84.99
32733;BME280;11867;51.198;11.966;2023-03-31T04:14:07;99274.53;;;11.99;85.13
32733;BME280;11867;51.198;11.966;2023-03-31T04:15:11;99272.31;;;11.70;85.99
32733;BME280;11867;51.198;11.966;2023-03-31T04:16:13;99277.22;;;11.90;85.79
32733;BME280;11867;51.198;11.966;2023-03-31T04:17:17;99274.19;;;11.92;85.18
32733;BME280;11867;51.198;11.966;2023-03-31T04:18:19;99278.91;;;11.46;86.89
32733;BME280;11867;51.198;11.966;2023-03-31T04:19:24;99280.47;;;11.16;88.68
32733;BME280;11867;51.198;11.966;2023-03-31T04:20:26;99279.81;;;11.33;88.03
32733;BME280;11867;51.198;11.966;2023-03-31T04:21:31;99275.19;;;11.42;87.91
32733;BME280;11867;51.198;11.966;2023-03-31T04:22:35;99276.44;;;11.36;87.70
32733;BME280;11867;51.198;11.966;2023-03-31T04:23:41;99267.47;;;11.36;88.14
32733;BME280;11867;51.198;11.966;2023-03-31T04:24:47;99263.03;;;11.48;87.62
32733;BME280;11867;51.198;11.966;2023-03-31T04:25:53;99263.53;;;11.50;87.81
32733;BME280;11867;51.198;11.966;2023-03-31T04:26:55;99259.69;;;11.51;87.86
32733;BME280;11867;51.198;11.966;2023-03-31T04:27:57;99260.78;;;11.50;87.69
32733;BME280;11867;51.198;11.966;2023-03-31T04:28:59;99268.50;;;11.26;88.94
32733;BME280;11867;51.198;11.966;2023-03-31T04:30:01;99257.34;;;11.36;88.63
32733;BME280;11867;51.198;11.966;2023-03-31T04:31:04;99259.84;;;11.24;89.18
32733;BME280;11867;51.198;11.966;2023-03-31T04:32:09;99261.22;;;10.90;90.91
32733;BME280;11867;51.198;11.966;2023-03-31T04:33:15;99261.66;;;11.06;91.17
32733;BME280;11867;51.198;11.966;2023-03-31T04:34:18;99252.34;;;11.29;90.20
32733;BME280;11867;51.198;11.966;2023-03-31T04:35:21;99252.38;;;11.38;89.50
32733;BME280;11867;51.198;11.966;2023-03-31T04:36:24;99248.63;;;11.03;90.96
32733;BME280;11867;51.198;11.966;2023-03-31T04:37:25;99253.63;;;11.09;90.98
32733;BME280;11867;51.198;11.966;2023-03-31T04:38:35;99244.16;;;11.29;90.63
32733;BME280;11867;51.198;11.966;2023-03-31T04:39:37;99234.28;;;11.20;90.98
32733;BME280;11867;51.198;11.966;2023-03-31T04:40:39;99243.88;;;11.40;90.47
32733;BME280;11867;51.198;11.966;2023-03-31T04:41:42;99236.91;;;11.02;92.18
32733;BME280;11867;51.198;11.966;2023-03-31T04:42:44;99228.94;;;11.06;92.99
32733;BME280;11867;51.198;11.966;2023-03-31T04:43:46;99234.38;;;11.06;93.38
32733;BME280;11867;51.198;11.966;2023-03-31T04:44:48;99229.50;;;11.25;92.81
32733;BME280;11867;51.198;11.966;2023-03-31T04:45:50;99223.34;;;11.42;91.54
32733;BME280;11867;51.198;11.966;2023-03-31T04:46:53;99225.19;;;11.56;91.04
32733;BME280;11867;51.198;11.966;2023-03-31T04:47:56;99226.00;;;11.65;90.76
32733;BME280;11867;51.198;11.966;2023-03-31T04:48:58;99218.38;;;11.84;90.07
32733;BME280;11867;51.198;11.966;2023-03-31T04:50:01;99222.28;;;12.01;89.58
32733;BME280;11867;51.198;11.966;2023-03-31T04:51:03;99217.81;;;12.05;89.21
32733;BME280;11867;51.198;11.966;2023-03-31T04:52:06;99217.88;;;12.22;88.74
32733;BME280;11867;51.198;11.966;2023-03-31T04:53:07;99215.75;;;12.19;88.28
32733;BME280;11867;51.198;11.966;2023-03-31T04:54:10;99220.41;;;12.10;88.97
32733;BME280;11867;51.198;11.966;2023-03-31T04:55:12;99221.69;;;12.04;88.95
32733;BME280;11867;51.198;11.966;2023-03-31T04:56:15;99213.97;;;12.06;88.66
32733;BME280;11867;51.198;11.966;2023-03-31T04:57:17;99209.63;;;12.05;88.96
32733;BME280;11867;51.198;11.966;2023-03-31T04:58:19;99198.44;;;11.75;90.73
32733;BME280;11867;51.198;11.966;2023-03-31T04:59:22;99206.28;;;11.68;91.36
32733;BME280;11867;51.198;11.966;2023-03-31T05:00:23;99196.44;;;11.58;91.81
32733;BME280;11867;51.198;11.966;2023-03-31T05:01:26;99197.72;;;11.52;92.40
32733;BME280;11867;51.198;11.966;2023-03-31T05:02:29;99193.75;;;11.27;93.54
32733;BME280;11867;51.198;11.966;2023-03-31T05:03:32;99194.78;;;11.48;92.89
32733;BME280;11867;51.198;11.966;2023-03-31T05:04:34;99191.28;;;11.57;92.19
32733;BME280;11867;51.198;11.966;2023-03-31T05:05:38;99186.41;;;11.85;91.14
32733;BME280;11867;51.198;11.966;2023-03-31T05:06:39;99188.72;;;11.91;90.37
32733;BME280;11867;51.198;11.966;2023-03-31T05:07:42;99183.03;;;11.79;89.76
32733;BME280;11867;51.198;11.966;2023-03-31T05:08:43;99183.66;;;11.76;89.91
32733;BME280;11867;51.198;11.966;2023-03-31T05:09:46;99192.97;;;11.84;90.02
32733;BME280;11867;51.198;11.966;2023-03-31T05:10:47;99180.50;;;11.91;89.54
32733;BME280;11867;51.198;11.966;2023-03-31T05:11:50;99178.88;;;11.90;89.65
32733;BME280;11867;51.198;11.966;2023-03-31T05:12:53;99180.13;;;11.84;90.19
32733;BME280;11867;51.198;11.966;2023-03-31T05:13:55;99178.97;;;11.68;90.79
32733;BME280;11867;51.198;11.966;2023-03-31T05:14:57;99170.81;;;11.85;90.32
32733;BME280;11867;51.198;11.966;2023-03-31T05:16:05;99167.59;;;11.83;90.37
32733;BME280;11867;51.198;11.966;2023-03-31T05:17:07;99165.34;;;11.68;90.80
32733;BME280;11867;51.198;11.966;2023-03-31T05:18:11;99150.84;;;11.59;91.37
32733;BME280;11867;51.198;11.966;2023-03-31T05:19:13;99151.81;;;11.63;91.50
32733;BME280;11867;51.198;11.966;2023-03-31T05:20:15;99142.94;;;11.48;91.72
32733;BME280;11867;51.198;11.966;2023-03-31T05:21:18;99132.69;;;11.54;91.68
32733;BME280;11867;51.198;11.966;2023-03-31T05:22:21;99134.97;;;11.69;91.36
32733;BME280;11867;51.198;11.966;2023-03-31T05:23:23;99138.66;;;11.65;91.52
32733;BME280;11867;51.198;11.966;2023-03-31T05:24:26;99131.69;;;11.50;92.20
32733;BME280;11867;51.198;11.966;2023-03-31T05:25:30;99134.03;;;11.34;92.97
32733;BME280;11867;51.198;11.966;2023-03-31T05:26:33;99133.31;;;11.11;94.28
32733;BME280;11867;51.198;11.966;2023-03-31T05:27:36;99121.00;;;10.91;95.69
32733;BME280;11867;51.198;11.966;2023-03-31T05:28:38;99129.06;;;10.96;95.63
32733;BME280;11867;51.198;11.966;2023-03-31T05:29:41;99132.47;;;11.02;95.95
32733;BME280;11867;51.198;11.966;2023-03-31T05:30:44;99122.09;;;11.13;95.56
32733;BME280;11867;51.198;11.966;2023-03-31T05:31:46;99125.03;;;11.25;95.04
32733;BME280;11867;51.198;11.966;2023-03-31T05:32:49;99115.88;;;11.21;94.67
32733;BME280;11867;51.198;11.966;2023-03-31T05:33:52;99117.69;;;11.43;93.73
32733;BME280;11867;51.198;11.966;2023-03-31T05:34:55;99125.16;;;11.60;92.43
32733;BME280;11867;51.198;11.966;2023-03-31T05:35:58;99117.78;;;11.69;92.04
32733;BME280;11867;51.198;11.966;2023-03-31T05:37:00;99110.38;;;11.61;92.40
32733;BME280;11867;51.198;11.966;2023-03-31T05:38:18;99117.00;;;11.86;91.29
32733;BME280;11867;51.198;11.966;2023-03-31T05:39:20;99114.75;;;11.88;90.45
32733;BME280;11867;51.198;11.966;2023-03-31T05:40:22;99110.94;;;11.89;89.90
32733;BME280;11867;51.198;11.966;2023-03-31T05:41:24;99111.44;;;12.00;90.56
32733;BME280;11867;51.198;11.966;2023-03-31T05:42:26;99109.00;;;11.89;90.10
32733;BME280;11867;51.198;11.966;2023-03-31T05:43:28;99110.44;;;11.87;90.51
32733;BME280;11867;51.198;11.966;2023-03-31T05:44:31;99108.22;;;11.98;90.33
32733;BME280;11867;51.198;11.966;2023-03-31T05:45:32;99106.06;;;11.60;91.10
32733;BME280;11867;51.198;11.966;2023-03-31T05:46:35;99105.00;;;11.38;92.46
32733;BME280;11867;51.198;11.966;2023-03-31T05:47:37;99108.78;;;11.20;93.74
32733;BME280;11867;51.198;11.966;2023-03-31T05:48:40;99094.63;;;11.09;94.14